sensor_id;sensor_type;location;lat;lon;timestamp;P1;durP1;ratioP1;P2;durP2;ratioP2
58208;SDS011;44006;52.028;4.696;2022-07-10T00:02:15;7.25;;;1.27;;
58208;SDS011;44006;52.028;4.696;2022-07-10T00:04:41;5.28;;;1.60;;
58208;SDS011;44006;52.028;4.696;2022-07-10T00:07:06;6.03;;;1.30;;
58208;SDS011;44006;52.028;4.696;2022-07-10T00:09:31;5.57;;;1.35;;
58208;SDS011;44006;52.028;4.696;2022-07-10T00:11:58;7.15;;;1.40;;
58208;SDS011;44006;52.028;4.696;2022-07-10T00:14:23;5.63;;;1.33;;
58208;SDS011;44006;52.028;4.696;2022-07-10T00:16:49;5.03;;;1.63;;
58208;SDS011;44006;52.028;4.696;2022-07-10T00:19:14;6.00;;;1.30;;
58208;SDS011;44006;52.028;4.696;2022-07-10T00:21:39;5.03;;;1.17;;
58208;SDS011;44006;52.028;4.696;2022-07-10T00:24:05;5.95;;;1.60;;
58208;SDS011;44006;52.028;4.696;2022-07-10T00:26:31;7.13;;;1.05;;
58208;SDS011;44006;52.028;4.696;2022-07-10T00:28:56;6.18;;;1.27;;
58208;SDS011;44006;52.028;4.696;2022-07-10T00:31:21;7.35;;;1.40;;
58208;SDS011;44006;52.028;4.696;2022-07-10T00:33:47;6.85;;;1.65;;
58208;SDS011;44006;52.028;4.696;2022-07-10T00:36:13;5.97;;;1.38;;
58208;SDS011;44006;52.028;4.696;2022-07-10T00:38:39;4.68;;;1.27;;
58208;SDS011;44006;52.028;4.696;2022-07-10T00:41:04;4.88;;;1.40;;
58208;SDS011;44006;52.028;4.696;2022-07-10T00:43:29;6.35;;;1.83;;
58208;SDS011;44006;52.028;4.696;2022-07-10T00:45:55;6.13;;;1.48;;
58208;SDS011;44006;52.028;4.696;2022-07-10T00:48:20;6.57;;;1.35;;
58208;SDS011;44006;52.028;4.696;2022-07-10T00:50:46;3.75;;;1.30;;
58208;SDS011;44006;52.028;4.696;2022-07-10T00:53:13;5.68;;;1.35;;
58208;SDS011;44006;52.028;4.696;2022-07-10T00:55:38;4.43;;;1.20;;
58208;SDS011;44006;52.028;4.696;2022-07-10T00:58:08;3.78;;;1.20;;
58208;SDS011;44006;52.028;4.696;2022-07-10T01:00:35;8.43;;;1.75;;
58208;SDS011;44006;52.028;4.696;2022-07-10T01:03:04;9.63;;;1.88;;
58208;SDS011;44006;52.028;4.696;2022-07-10T01:05:30;7.57;;;1.33;;
58208;SDS011;44006;52.028;4.696;2022-07-10T01:07:56;7.45;;;1.55;;
58208;SDS011;44006;52.028;4.696;2022-07-10T01:10:21;3.90;;;1.52;;
58208;SDS011;44006;52.028;4.696;2022-07-10T01:12:46;2.97;;;1.23;;
58208;SDS011;44006;52.028;4.696;2022-07-10T01:15:12;5.60;;;1.35;;
58208;SDS011;44006;52.028;4.696;2022-07-10T01:17:38;13.05;;;2.47;;
58208;SDS011;44006;52.028;4.696;2022-07-10T01:20:04;6.72;;;1.67;;
58208;SDS011;44006;52.028;4.696;2022-07-10T01:22:35;7.65;;;1.48;;
58208;SDS011;44006;52.028;4.696;2022-07-10T01:25:02;7.82;;;1.60;;
58208;SDS011;44006;52.028;4.696;2022-07-10T01:27:27;5.78;;;1.63;;
58208;SDS011;44006;52.028;4.696;2022-07-10T01:29:53;4.60;;;1.83;;
58208;SDS011;44006;52.028;4.696;2022-07-10T01:32:19;3.38;;;1.05;;
58208;SDS011;44006;52.028;4.696;2022-07-10T01:34:44;7.35;;;1.80;;
58208;SDS011;44006;52.028;4.696;2022-07-10T01:37:12;6.25;;;1.38;;
58208;SDS011;44006;52.028;4.696;2022-07-10T01:39:37;5.63;;;1.38;;
58208;SDS011;44006;52.028;4.696;2022-07-10T01:42:02;4.70;;;1.40;;
58208;SDS011;44006;52.028;4.696;2022-07-10T01:44:28;5.40;;;1.55;;
58208;SDS011;44006;52.028;4.696;2022-07-10T01:46:53;4.53;;;1.23;;
58208;SDS011;44006;52.028;4.696;2022-07-10T01:49:19;6.03;;;1.75;;
58208;SDS011;44006;52.028;4.696;2022-07-10T01:51:44;8.10;;;1.73;;
58208;SDS011;44006;52.028;4.696;2022-07-10T01:54:09;6.50;;;1.42;;
58208;SDS011;44006;52.028;4.696;2022-07-10T01:56:35;6.88;;;1.52;;
58208;SDS011;44006;52.028;4.696;2022-07-10T01:59:00;5.68;;;1.23;;
58208;SDS011;44006;52.028;4.696;2022-07-10T02:01:28;4.22;;;1.00;;
58208;SDS011;44006;52.028;4.696;2022-07-10T02:03:53;4.97;;;1.52;;
58208;SDS011;44006;52.028;4.696;2022-07-10T02:06:37;3.50;;;1.13;;
58208;SDS011;44006;52.028;4.696;2022-07-10T02:09:02;7.38;;;1.63;;
58208;SDS011;44006;52.028;4.696;2022-07-10T02:11:28;4.97;;;1.40;;
58208;SDS011;44006;52.028;4.696;2022-07-10T02:13:53;5.07;;;1.17;;
58208;SDS011;44006;52.028;4.696;2022-07-10T02:16:18;4.50;;;1.08;;
58208;SDS011;44006;52.028;4.696;2022-07-10T02:18:44;4.65;;;1.50;;
58208;SDS011;44006;52.028;4.696;2022-07-10T02:21:09;8.82;;;1.80;;
58208;SDS011;44006;52.028;4.696;2022-07-10T02:23:35;6.55;;;1.20;;
58208;SDS011;44006;52.028;4.696;2022-07-10T02:26:01;5.93;;;1.30;;
58208;SDS011;44006;52.028;4.696;2022-07-10T02:28:26;7.97;;;1.38;;
58208;SDS011;44006;52.028;4.696;2022-07-10T02:30:52;7.00;;;1.30;;
58208;SDS011;44006;52.028;4.696;2022-07-10T02:33:18;4.53;;;1.10;;
58208;SDS011;44006;52.028;4.696;2022-07-10T02:35:44;5.32;;;1.20;;
58208;SDS011;44006;52.028;4.696;2022-07-10T02:38:09;5.53;;;1.50;;
58208;SDS011;44006;52.028;4.696;2022-07-10T02:40:34;4.45;;;1.45;;
58208;SDS011;44006;52.028;4.696;2022-07-10T02:43:00;4.28;;;1.40;;
58208;SDS011;44006;52.028;4.696;2022-07-10T02:45:25;8.55;;;1.75;;
58208;SDS011;44006;52.028;4.696;2022-07-10T02:47:50;5.78;;;1.30;;
58208;SDS011;44006;52.028;4.696;2022-07-10T02:50:16;4.80;;;1.40;;
58208;SDS011;44006;52.028;4.696;2022-07-10T02:52:41;3.83;;;1.30;;
58208;SDS011;44006;52.028;4.696;2022-07-10T02:55:07;6.60;;;1.55;;
58208;SDS011;44006;52.028;4.696;2022-07-10T02:57:32;3.80;;;1.00;;
58208;SDS011;44006;52.028;4.696;2022-07-10T02:59:57;5.00;;;1.00;;
58208;SDS011;44006;52.028;4.696;2022-07-10T03:02:23;4.55;;;1.30;;
58208;SDS011;44006;52.028;4.696;2022-07-10T03:04:48;7.32;;;1.30;;
58208;SDS011;44006;52.028;4.696;2022-07-10T03:07:13;5.10;;;1.70;;
58208;SDS011;44006;52.028;4.696;2022-07-10T03:09:39;8.40;;;1.50;;
58208;SDS011;44006;52.028;4.696;2022-07-10T03:12:04;4.72;;;1.00;;
58208;SDS011;44006;52.028;4.696;2022-07-10T03:14:30;5.97;;;1.40;;
58208;SDS011;44006;52.028;4.696;2022-07-10T03:16:55;7.47;;;1.65;;
58208;SDS011;44006;52.028;4.696;2022-07-10T03:19:21;5.15;;;1.25;;
58208;SDS011;44006;52.028;4.696;2022-07-10T03:21:46;3.97;;;1.10;;
58208;SDS011;44006;52.028;4.696;2022-07-10T03:24:13;5.13;;;1.20;;
58208;SDS011;44006;52.028;4.696;2022-07-10T03:26:38;5.03;;;1.27;;
58208;SDS011;44006;52.028;4.696;2022-07-10T03:29:04;4.40;;;1.38;;
58208;SDS011;44006;52.028;4.696;2022-07-10T03:31:29;6.70;;;1.13;;
58208;SDS011;44006;52.028;4.696;2022-07-10T03:33:54;4.18;;;1.30;;
58208;SDS011;44006;52.028;4.696;2022-07-10T03:36:20;3.97;;;1.30;;
58208;SDS011;44006;52.028;4.696;2022-07-10T03:38:45;5.15;;;1.50;;
58208;SDS011;44006;52.028;4.696;2022-07-10T03:41:11;7.30;;;1.23;;
58208;SDS011;44006;52.028;4.696;2022-07-10T03:43:38;6.68;;;1.42;;
58208;SDS011;44006;52.028;4.696;2022-07-10T03:46:03;7.13;;;1.45;;
58208;SDS011;44006;52.028;4.696;2022-07-10T03:48:28;6.85;;;1.55;;
58208;SDS011;44006;52.028;4.696;2022-07-10T03:50:54;7.60;;;1.30;;
58208;SDS011;44006;52.028;4.696;2022-07-10T03:53:19;5.32;;;1.17;;
58208;SDS011;44006;52.028;4.696;2022-07-10T03:55:44;6.60;;;1.42;;
58208;SDS011;44006;52.028;4.696;2022-07-10T03:58:10;8.15;;;1.30;;
58208;SDS011;44006;52.028;4.696;2022-07-10T04:00:36;5.40;;;1.42;;
58208;SDS011;44006;52.028;4.696;2022-07-10T04:03:04;8.60;;;1.48;;
58208;SDS011;44006;52.028;4.696;2022-07-10T04:05:31;10.40;;;1.65;;
58208;SDS011;44006;52.028;4.696;2022-07-10T04:07:57;3.97;;;1.10;;
58208;SDS011;44006;52.028;4.696;2022-07-10T04:10:23;7.38;;;1.27;;
58208;SDS011;44006;52.028;4.696;2022-07-10T04:12:50;5.35;;;1.65;;
58208;SDS011;44006;52.028;4.696;2022-07-10T04:15:15;5.93;;;1.38;;
58208;SDS011;44006;52.028;4.696;2022-07-10T04:17:41;5.32;;;1.67;;
58208;SDS011;44006;52.028;4.696;2022-07-10T04:20:07;3.10;;;1.30;;
58208;SDS011;44006;52.028;4.696;2022-07-10T04:22:33;4.80;;;1.20;;
58208;SDS011;44006;52.028;4.696;2022-07-10T04:24:58;7.57;;;1.38;;
58208;SDS011;44006;52.028;4.696;2022-07-10T04:27:23;5.88;;;1.35;;
58208;SDS011;44006;52.028;4.696;2022-07-10T04:29:49;5.57;;;1.20;;
58208;SDS011;44006;52.028;4.696;2022-07-10T04:32:14;7.78;;;1.50;;
58208;SDS011;44006;52.028;4.696;2022-07-10T04:34:41;7.88;;;1.83;;
58208;SDS011;44006;52.028;4.696;2022-07-10T04:37:06;9.10;;;1.52;;
58208;SDS011;44006;52.028;4.696;2022-07-10T04:39:35;7.55;;;1.40;;
58208;SDS011;44006;52.028;4.696;2022-07-10T04:42:02;4.35;;;1.33;;
58208;SDS011;44006;52.028;4.696;2022-07-10T04:44:28;5.53;;;1.63;;
58208;SDS011;44006;52.028;4.696;2022-07-10T04:46:54;8.75;;;2.15;;
58208;SDS011;44006;52.028;4.696;2022-07-10T04:49:19;9.55;;;1.50;;
58208;SDS011;44006;52.028;4.696;2022-07-10T04:51:45;5.05;;;1.35;;
58208;SDS011;44006;52.028;4.696;2022-07-10T04:54:10;7.28;;;1.67;;
58208;SDS011;44006;52.028;4.696;2022-07-10T04:56:35;7.43;;;1.27;;
58208;SDS011;44006;52.028;4.696;2022-07-10T04:59:01;5.00;;;1.20;;
58208;SDS011;44006;52.028;4.696;2022-07-10T05:01:27;10.75;;;3.08;;
58208;SDS011;44006;52.028;4.696;2022-07-10T05:03:52;9.30;;;2.15;;
58208;SDS011;44006;52.028;4.696;2022-07-10T05:06:18;5.00;;;1.45;;
58208;SDS011;44006;52.028;4.696;2022-07-10T05:08:43;7.05;;;1.25;;
58208;SDS011;44006;52.028;4.696;2022-07-10T05:11:08;6.15;;;1.00;;
58208;SDS011;44006;52.028;4.696;2022-07-10T05:13:34;5.20;;;1.30;;
58208;SDS011;44006;52.028;4.696;2022-07-10T05:15:59;9.02;;;1.42;;
58208;SDS011;44006;52.028;4.696;2022-07-10T05:18:25;6.22;;;1.30;;
58208;SDS011;44006;52.028;4.696;2022-07-10T05:20:50;6.43;;;1.50;;
58208;SDS011;44006;52.028;4.696;2022-07-10T05:23:15;7.25;;;1.90;;
58208;SDS011;44006;52.028;4.696;2022-07-10T05:25:41;8.43;;;1.45;;
58208;SDS011;44006;52.028;4.696;2022-07-10T05:28:08;2.72;;;1.27;;
58208;SDS011;44006;52.028;4.696;2022-07-10T05:30:34;5.32;;;1.30;;
58208;SDS011;44006;52.028;4.696;2022-07-10T05:33:00;6.00;;;1.17;;
58208;SDS011;44006;52.028;4.696;2022-07-10T05:35:26;6.00;;;1.70;;
58208;SDS011;44006;52.028;4.696;2022-07-10T05:37:52;6.50;;;1.27;;
58208;SDS011;44006;52.028;4.696;2022-07-10T05:40:18;5.82;;;1.48;;
58208;SDS011;44006;52.028;4.696;2022-07-10T05:42:43;6.28;;;1.40;;
58208;SDS011;44006;52.028;4.696;2022-07-10T05:45:09;6.43;;;1.40;;
58208;SDS011;44006;52.028;4.696;2022-07-10T05:47:35;4.90;;;1.40;;
58208;SDS011;44006;52.028;4.696;2022-07-10T05:50:01;6.25;;;1.33;;
58208;SDS011;44006;52.028;4.696;2022-07-10T05:52:26;6.00;;;1.38;;
58208;SDS011;44006;52.028;4.696;2022-07-10T05:54:52;7.70;;;1.52;;
58208;SDS011;44006;52.028;4.696;2022-07-10T05:57:18;11.80;;;1.83;;
58208;SDS011;44006;52.028;4.696;2022-07-10T05:59:44;5.60;;;1.45;;
58208;SDS011;44006;52.028;4.696;2022-07-10T06:02:09;6.60;;;1.45;;
58208;SDS011;44006;52.028;4.696;2022-07-10T06:04:35;4.90;;;1.15;;
58208;SDS011;44006;52.028;4.696;2022-07-10T06:07:01;8.88;;;2.47;;
58208;SDS011;44006;52.028;4.696;2022-07-10T06:09:27;8.90;;;1.25;;
58208;SDS011;44006;52.028;4.696;2022-07-10T06:11:52;3.97;;;1.52;;
58208;SDS011;44006;52.028;4.696;2022-07-10T06:14:18;6.60;;;1.30;;
58208;SDS011;44006;52.028;4.696;2022-07-10T06:16:43;6.35;;;1.40;;
58208;SDS011;44006;52.028;4.696;2022-07-10T06:19:09;7.45;;;1.30;;
58208;SDS011;44006;52.028;4.696;2022-07-10T06:21:34;7.35;;;1.38;;
58208;SDS011;44006;52.028;4.696;2022-07-10T06:23:59;7.88;;;1.38;;
58208;SDS011;44006;52.028;4.696;2022-07-10T06:26:25;5.13;;;1.15;;
58208;SDS011;44006;52.028;4.696;2022-07-10T06:28:50;11.88;;;1.55;;
58208;SDS011;44006;52.028;4.696;2022-07-10T06:31:16;3.22;;;1.00;;
58208;SDS011;44006;52.028;4.696;2022-07-10T06:33:41;7.22;;;1.83;;
58208;SDS011;44006;52.028;4.696;2022-07-10T06:36:07;8.52;;;1.50;;
58208;SDS011;44006;52.028;4.696;2022-07-10T06:38:33;6.13;;;1.30;;
58208;SDS011;44006;52.028;4.696;2022-07-10T06:40:58;4.53;;;1.30;;
58208;SDS011;44006;52.028;4.696;2022-07-10T06:43:24;3.60;;;1.25;;
58208;SDS011;44006;52.028;4.696;2022-07-10T06:45:49;5.15;;;1.70;;
58208;SDS011;44006;52.028;4.696;2022-07-10T06:48:15;4.63;;;1.48;;
58208;SDS011;44006;52.028;4.696;2022-07-10T06:50:41;5.00;;;1.30;;
58208;SDS011;44006;52.028;4.696;2022-07-10T06:53:07;7.50;;;1.20;;
58208;SDS011;44006;52.028;4.696;2022-07-10T06:55:33;2.78;;;1.20;;
58208;SDS011;44006;52.028;4.696;2022-07-10T06:57:59;5.15;;;1.40;;
58208;SDS011;44006;52.028;4.696;2022-07-10T07:00:25;3.75;;;1.30;;
58208;SDS011;44006;52.028;4.696;2022-07-10T07:02:51;6.65;;;1.65;;
58208;SDS011;44006;52.028;4.696;2022-07-10T07:05:17;9.23;;;1.40;;
58208;SDS011;44006;52.028;4.696;2022-07-10T07:07:42;9.02;;;1.45;;
58208;SDS011;44006;52.028;4.696;2022-07-10T07:10:08;5.03;;;1.30;;
58208;SDS011;44006;52.028;4.696;2022-07-10T07:12:34;6.13;;;1.30;;
58208;SDS011;44006;52.028;4.696;2022-07-10T07:15:00;4.90;;;1.20;;
58208;SDS011;44006;52.028;4.696;2022-07-10T07:17:25;5.13;;;1.38;;
58208;SDS011;44006;52.028;4.696;2022-07-10T07:19:58;3.88;;;1.20;;
58208;SDS011;44006;52.028;4.696;2022-07-10T07:22:43;4.85;;;1.48;;
58208;SDS011;44006;52.028;4.696;2022-07-10T07:25:27;5.43;;;1.48;;
58208;SDS011;44006;52.028;4.696;2022-07-10T07:27:52;4.10;;;1.42;;
58208;SDS011;44006;52.028;4.696;2022-07-10T07:30:18;6.38;;;1.48;;
58208;SDS011;44006;52.028;4.696;2022-07-10T07:32:44;5.43;;;1.55;;
58208;SDS011;44006;52.028;4.696;2022-07-10T07:35:11;7.20;;;1.17;;
58208;SDS011;44006;52.028;4.696;2022-07-10T07:40:08;5.63;;;1.52;;
58208;SDS011;44006;52.028;4.696;2022-07-10T07:42:34;8.20;;;1.63;;
58208;SDS011;44006;52.028;4.696;2022-07-10T07:45:01;4.93;;;1.48;;
58208;SDS011;44006;52.028;4.696;2022-07-10T07:47:28;7.53;;;1.58;;
58208;SDS011;44006;52.028;4.696;2022-07-10T07:49:54;5.82;;;1.67;;
58208;SDS011;44006;52.028;4.696;2022-07-10T07:52:20;3.90;;;1.30;;
58208;SDS011;44006;52.028;4.696;2022-07-10T07:54:45;7.28;;;1.75;;
58208;SDS011;44006;52.028;4.696;2022-07-10T07:57:11;5.68;;;1.40;;
58208;SDS011;44006;52.028;4.696;2022-07-10T07:59:36;4.97;;;1.55;;
58208;SDS011;44006;52.028;4.696;2022-07-10T08:02:02;3.25;;;1.30;;
58208;SDS011;44006;52.028;4.696;2022-07-10T08:04:27;6.43;;;1.08;;
58208;SDS011;44006;52.028;4.696;2022-07-10T08:06:53;3.72;;;1.40;;
58208;SDS011;44006;52.028;4.696;2022-07-10T08:09:19;5.97;;;1.40;;
58208;SDS011;44006;52.028;4.696;2022-07-10T08:11:46;4.53;;;1.38;;
58208;SDS011;44006;52.028;4.696;2022-07-10T08:14:12;6.70;;;1.95;;
58208;SDS011;44006;52.028;4.696;2022-07-10T08:16:38;5.03;;;1.38;;
58208;SDS011;44006;52.028;4.696;2022-07-10T08:19:03;4.13;;;1.25;;
58208;SDS011;44006;52.028;4.696;2022-07-10T08:21:28;6.47;;;1.40;;
58208;SDS011;44006;52.028;4.696;2022-07-10T08:23:55;4.20;;;1.40;;
58208;SDS011;44006;52.028;4.696;2022-07-10T08:26:20;7.22;;;1.48;;
58208;SDS011;44006;52.028;4.696;2022-07-10T08:28:46;2.50;;;1.20;;
58208;SDS011;44006;52.028;4.696;2022-07-10T08:31:11;5.45;;;1.60;;
58208;SDS011;44006;52.028;4.696;2022-07-10T08:33:36;4.80;;;1.20;;
58208;SDS011;44006;52.028;4.696;2022-07-10T08:36:02;2.50;;;1.10;;
58208;SDS011;44006;52.028;4.696;2022-07-10T08:38:29;4.28;;;1.20;;
58208;SDS011;44006;52.028;4.696;2022-07-10T08:40:54;5.22;;;1.55;;
58208;SDS011;44006;52.028;4.696;2022-07-10T08:43:24;6.63;;;1.35;;
58208;SDS011;44006;52.028;4.696;2022-07-10T08:45:53;5.32;;;1.42;;
58208;SDS011;44006;52.028;4.696;2022-07-10T08:48:22;6.72;;;1.48;;
58208;SDS011;44006;52.028;4.696;2022-07-10T08:50:51;4.32;;;1.02;;
58208;SDS011;44006;52.028;4.696;2022-07-10T08:53:24;4.43;;;1.40;;
58208;SDS011;44006;52.028;4.696;2022-07-10T08:55:55;6.72;;;1.40;;
58208;SDS011;44006;52.028;4.696;2022-07-10T08:58:22;6.20;;;1.38;;
58208;SDS011;44006;52.028;4.696;2022-07-10T09:00:48;3.85;;;1.13;;
58208;SDS011;44006;52.028;4.696;2022-07-10T09:03:14;3.22;;;1.30;;
58208;SDS011;44006;52.028;4.696;2022-07-10T09:05:40;5.07;;;1.80;;
58208;SDS011;44006;52.028;4.696;2022-07-10T09:08:20;4.32;;;1.45;;
58208;SDS011;44006;52.028;4.696;2022-07-10T09:10:47;3.83;;;1.30;;
58208;SDS011;44006;52.028;4.696;2022-07-10T09:13:12;4.38;;;1.33;;
58208;SDS011;44006;52.028;4.696;2022-07-10T09:15:38;4.45;;;1.02;;
58208;SDS011;44006;52.028;4.696;2022-07-10T09:18:04;6.07;;;1.02;;
58208;SDS011;44006;52.028;4.696;2022-07-10T09:20:34;3.90;;;0.95;;
58208;SDS011;44006;52.028;4.696;2022-07-10T09:23:19;4.45;;;1.10;;
58208;SDS011;44006;52.028;4.696;2022-07-10T09:25:46;4.88;;;1.05;;
58208;SDS011;44006;52.028;4.696;2022-07-10T09:28:13;4.57;;;1.15;;
58208;SDS011;44006;52.028;4.696;2022-07-10T09:30:41;3.75;;;1.17;;
58208;SDS011;44006;52.028;4.696;2022-07-10T09:33:25;4.95;;;1.20;;
58208;SDS011;44006;52.028;4.696;2022-07-10T09:41:21;5.65;;;1.30;;
58208;SDS011;44006;52.028;4.696;2022-07-10T09:43:53;4.50;;;1.23;;
58208;SDS011;44006;52.028;4.696;2022-07-10T09:46:31;2.72;;;1.00;;
58208;SDS011;44006;52.028;4.696;2022-07-10T09:49:07;9.15;;;1.52;;
58208;SDS011;44006;52.028;4.696;2022-07-10T09:51:40;4.45;;;1.65;;
58208;SDS011;44006;52.028;4.696;2022-07-10T09:54:08;4.47;;;1.20;;
58208;SDS011;44006;52.028;4.696;2022-07-10T09:59:15;4.38;;;1.10;;
58208;SDS011;44006;52.028;4.696;2022-07-10T10:01:44;5.53;;;1.08;;
58208;SDS011;44006;52.028;4.696;2022-07-10T10:04:11;4.47;;;1.17;;
58208;SDS011;44006;52.028;4.696;2022-07-10T10:06:38;5.47;;;1.42;;
58208;SDS011;44006;52.028;4.696;2022-07-10T10:09:41;4.80;;;1.15;;
58208;SDS011;44006;52.028;4.696;2022-07-10T10:12:05;2.30;;;0.95;;
58208;SDS011;44006;52.028;4.696;2022-07-10T10:14:34;2.83;;;1.20;;
58208;SDS011;44006;52.028;4.696;2022-07-10T10:17:01;6.28;;;1.17;;
58208;SDS011;44006;52.028;4.696;2022-07-10T10:19:29;5.30;;;1.52;;
58208;SDS011;44006;52.028;4.696;2022-07-10T10:22:17;3.15;;;0.85;;
58208;SDS011;44006;52.028;4.696;2022-07-10T10:24:43;6.70;;;1.40;;
58208;SDS011;44006;52.028;4.696;2022-07-10T10:27:10;4.95;;;1.13;;
58208;SDS011;44006;52.028;4.696;2022-07-10T10:29:36;3.05;;;1.20;;
58208;SDS011;44006;52.028;4.696;2022-07-10T10:32:03;4.28;;;1.10;;
58208;SDS011;44006;52.028;4.696;2022-07-10T10:34:42;6.22;;;1.25;;
58208;SDS011;44006;52.028;4.696;2022-07-10T10:40:02;6.57;;;1.35;;
58208;SDS011;44006;52.028;4.696;2022-07-10T10:42:32;3.58;;;1.00;;
58208;SDS011;44006;52.028;4.696;2022-07-10T10:53:20;5.80;;;1.30;;
58208;SDS011;44006;52.028;4.696;2022-07-10T10:58:25;3.13;;;1.27;;
58208;SDS011;44006;52.028;4.696;2022-07-10T11:00:51;3.65;;;1.10;;
58208;SDS011;44006;52.028;4.696;2022-07-10T11:03:18;9.02;;;1.50;;
58208;SDS011;44006;52.028;4.696;2022-07-10T11:05:47;4.70;;;1.27;;
58208;SDS011;44006;52.028;4.696;2022-07-10T11:08:13;2.60;;;1.10;;
58208;SDS011;44006;52.028;4.696;2022-07-10T11:10:58;3.15;;;1.20;;
58208;SDS011;44006;52.028;4.696;2022-07-10T11:13:24;4.25;;;1.52;;
58208;SDS011;44006;52.028;4.696;2022-07-10T11:15:54;3.25;;;1.05;;
58208;SDS011;44006;52.028;4.696;2022-07-10T11:18:22;5.32;;;1.08;;
58208;SDS011;44006;52.028;4.696;2022-07-10T11:20:49;4.72;;;1.30;;
58208;SDS011;44006;52.028;4.696;2022-07-10T11:31:21;8.45;;;1.40;;
58208;SDS011;44006;52.028;4.696;2022-07-10T11:33:49;1.48;;;0.70;;
58208;SDS011;44006;52.028;4.696;2022-07-10T11:36:17;3.03;;;1.00;;
58208;SDS011;44006;52.028;4.696;2022-07-10T11:38:46;2.13;;;0.90;;
58208;SDS011;44006;52.028;4.696;2022-07-10T11:41:15;2.88;;;1.20;;
58208;SDS011;44006;52.028;4.696;2022-07-10T11:43:50;3.65;;;1.00;;
58208;SDS011;44006;52.028;4.696;2022-07-10T11:46:17;1.90;;;0.88;;
58208;SDS011;44006;52.028;4.696;2022-07-10T11:48:43;4.63;;;1.17;;
58208;SDS011;44006;52.028;4.696;2022-07-10T11:51:16;3.00;;;0.90;;
58208;SDS011;44006;52.028;4.696;2022-07-10T11:53:52;3.00;;;0.90;;
58208;SDS011;44006;52.028;4.696;2022-07-10T11:56:19;2.95;;;0.90;;
58208;SDS011;44006;52.028;4.696;2022-07-10T11:58:52;4.38;;;1.05;;
58208;SDS011;44006;52.028;4.696;2022-07-10T12:01:18;2.28;;;1.00;;
58208;SDS011;44006;52.028;4.696;2022-07-10T12:03:44;3.28;;;1.10;;
58208;SDS011;44006;52.028;4.696;2022-07-10T12:06:10;3.67;;;1.10;;
58208;SDS011;44006;52.028;4.696;2022-07-10T12:08:45;3.25;;;1.00;;
58208;SDS011;44006;52.028;4.696;2022-07-10T12:11:12;3.60;;;1.10;;
58208;SDS011;44006;52.028;4.696;2022-07-10T12:13:39;5.72;;;1.13;;
58208;SDS011;44006;52.028;4.696;2022-07-10T12:16:04;2.38;;;0.85;;
58208;SDS011;44006;52.028;4.696;2022-07-10T12:18:30;3.25;;;1.00;;
58208;SDS011;44006;52.028;4.696;2022-07-10T12:20:58;2.75;;;0.95;;
58208;SDS011;44006;52.028;4.696;2022-07-10T12:23:24;2.22;;;0.80;;
58208;SDS011;44006;52.028;4.696;2022-07-10T12:25:50;3.80;;;1.05;;
58208;SDS011;44006;52.028;4.696;2022-07-10T12:28:16;2.28;;;0.77;;
58208;SDS011;44006;52.028;4.696;2022-07-10T12:30:45;4.10;;;0.80;;
58208;SDS011;44006;52.028;4.696;2022-07-10T12:33:15;5.53;;;0.90;;
58208;SDS011;44006;52.028;4.696;2022-07-10T12:35:56;2.65;;;0.90;;
58208;SDS011;44006;52.028;4.696;2022-07-10T12:38:27;2.88;;;0.75;;
58208;SDS011;44006;52.028;4.696;2022-07-10T12:41:06;4.25;;;0.90;;
58208;SDS011;44006;52.028;4.696;2022-07-10T12:43:31;2.45;;;1.00;;
58208;SDS011;44006;52.028;4.696;2022-07-10T12:49:05;5.30;;;1.02;;
58208;SDS011;44006;52.028;4.696;2022-07-10T12:57:02;2.22;;;0.80;;
58208;SDS011;44006;52.028;4.696;2022-07-10T12:59:32;2.65;;;0.98;;
58208;SDS011;44006;52.028;4.696;2022-07-10T13:02:14;2.88;;;0.93;;
58208;SDS011;44006;52.028;4.696;2022-07-10T13:04:51;2.45;;;0.90;;
58208;SDS011;44006;52.028;4.696;2022-07-10T13:07:17;4.20;;;1.17;;
58208;SDS011;44006;52.028;4.696;2022-07-10T13:09:43;2.88;;;0.88;;
58208;SDS011;44006;52.028;4.696;2022-07-10T13:12:09;2.90;;;1.10;;
58208;SDS011;44006;52.028;4.696;2022-07-10T13:14:34;3.40;;;1.05;;
58208;SDS011;44006;52.028;4.696;2022-07-10T13:17:00;3.25;;;0.88;;
58208;SDS011;44006;52.028;4.696;2022-07-10T13:19:25;3.65;;;1.55;;
58208;SDS011;44006;52.028;4.696;2022-07-10T13:21:51;2.40;;;1.00;;
58208;SDS011;44006;52.028;4.696;2022-07-10T13:24:16;2.65;;;1.10;;
58208;SDS011;44006;52.028;4.696;2022-07-10T13:26:43;3.28;;;1.05;;
58208;SDS011;44006;52.028;4.696;2022-07-10T13:29:08;3.28;;;0.90;;
58208;SDS011;44006;52.028;4.696;2022-07-10T13:31:34;4.15;;;1.45;;
58208;SDS011;44006;52.028;4.696;2022-07-10T13:33:59;4.18;;;1.30;;
58208;SDS011;44006;52.028;4.696;2022-07-10T13:36:25;5.18;;;1.20;;
58208;SDS011;44006;52.028;4.696;2022-07-10T13:38:51;3.95;;;1.05;;
58208;SDS011;44006;52.028;4.696;2022-07-10T13:41:17;3.45;;;1.08;;
58208;SDS011;44006;52.028;4.696;2022-07-10T13:43:44;4.18;;;1.00;;
58208;SDS011;44006;52.028;4.696;2022-07-10T13:46:10;6.15;;;1.30;;
58208;SDS011;44006;52.028;4.696;2022-07-10T13:48:36;3.58;;;1.20;;
58208;SDS011;44006;52.028;4.696;2022-07-10T13:51:02;5.00;;;1.33;;
58208;SDS011;44006;52.028;4.696;2022-07-10T13:53:27;3.78;;;1.20;;
58208;SDS011;44006;52.028;4.696;2022-07-10T13:55:53;5.95;;;1.60;;
58208;SDS011;44006;52.028;4.696;2022-07-10T13:58:18;3.70;;;1.20;;
58208;SDS011;44006;52.028;4.696;2022-07-10T14:00:45;3.45;;;1.05;;
58208;SDS011;44006;52.028;4.696;2022-07-10T14:03:11;4.15;;;1.38;;
58208;SDS011;44006;52.028;4.696;2022-07-10T14:05:36;3.08;;;1.20;;
58208;SDS011;44006;52.028;4.696;2022-07-10T14:08:02;4.40;;;1.45;;
58208;SDS011;44006;52.028;4.696;2022-07-10T14:10:27;3.72;;;1.48;;
58208;SDS011;44006;52.028;4.696;2022-07-10T14:12:53;5.68;;;1.50;;
58208;SDS011;44006;52.028;4.696;2022-07-10T14:15:19;4.07;;;1.20;;
58208;SDS011;44006;52.028;4.696;2022-07-10T14:17:45;4.63;;;1.10;;
58208;SDS011;44006;52.028;4.696;2022-07-10T14:20:11;4.45;;;1.40;;
58208;SDS011;44006;52.028;4.696;2022-07-10T14:22:36;6.43;;;1.33;;
58208;SDS011;44006;52.028;4.696;2022-07-10T14:25:03;6.00;;;1.58;;
58208;SDS011;44006;52.028;4.696;2022-07-10T14:27:29;4.13;;;1.30;;
58208;SDS011;44006;52.028;4.696;2022-07-10T14:29:56;3.28;;;1.20;;
58208;SDS011;44006;52.028;4.696;2022-07-10T14:32:22;2.92;;;1.05;;
58208;SDS011;44006;52.028;4.696;2022-07-10T14:34:47;1.92;;;1.00;;
58208;SDS011;44006;52.028;4.696;2022-07-10T14:37:13;2.85;;;1.38;;
58208;SDS011;44006;52.028;4.696;2022-07-10T14:39:38;3.90;;;1.50;;
58208;SDS011;44006;52.028;4.696;2022-07-10T14:42:04;1.88;;;1.20;;
58208;SDS011;44006;52.028;4.696;2022-07-10T14:44:35;4.28;;;1.50;;
58208;SDS011;44006;52.028;4.696;2022-07-10T14:47:00;3.10;;;1.17;;
58208;SDS011;44006;52.028;4.696;2022-07-10T14:49:26;7.20;;;2.03;;
58208;SDS011;44006;52.028;4.696;2022-07-10T14:51:52;5.90;;;3.22;;
58208;SDS011;44006;52.028;4.696;2022-07-10T14:54:17;9.65;;;7.20;;
58208;SDS011;44006;52.028;4.696;2022-07-10T14:56:42;23.63;;;17.88;;
58208;SDS011;44006;52.028;4.696;2022-07-10T14:59:09;14.27;;;10.73;;
58208;SDS011;44006;52.028;4.696;2022-07-10T15:01:34;16.60;;;10.82;;
58208;SDS011;44006;52.028;4.696;2022-07-10T15:04:00;15.15;;;12.18;;
58208;SDS011;44006;52.028;4.696;2022-07-10T15:06:26;10.05;;;4.32;;
58208;SDS011;44006;52.028;4.696;2022-07-10T15:08:51;5.47;;;1.80;;
58208;SDS011;44006;52.028;4.696;2022-07-10T15:11:17;4.95;;;1.90;;
58208;SDS011;44006;52.028;4.696;2022-07-10T15:13:43;8.15;;;2.10;;
58208;SDS011;44006;52.028;4.696;2022-07-10T15:16:09;3.05;;;1.92;;
58208;SDS011;44006;52.028;4.696;2022-07-10T15:18:34;16.10;;;9.98;;
58208;SDS011;44006;52.028;4.696;2022-07-10T15:20:59;90.93;;;68.82;;
58208;SDS011;44006;52.028;4.696;2022-07-10T15:23:25;109.80;;;82.82;;
58208;SDS011;44006;52.028;4.696;2022-07-10T15:25:52;77.68;;;58.00;;
58208;SDS011;44006;52.028;4.696;2022-07-10T15:28:18;30.70;;;21.83;;